Squantum, Massachusetts
Current Conditions -  °F | °C
As of 10:54 PM on Wednesday 28 Jan 2015 (Local Time) from KBOS Reporting Station
Clear Clear  
Wind Chill:   Ceiling: Unl
Heat Index: 19°   Visibility: 10mi
Dew Point:   Wind: 9mph
Humidity: 47%   Direction: 310°NW
Pressure: 30.22"   Gusts: NA
Location:  42.2866°N, 71.0248°W
Report Text: KBOS 290354Z 31008KT 10SM CLR M07/M17 A3022 RMK AO2 SLP232 T10721167 $
Loading
Personal Weather Stations






























Interactive Weather Map New forecast layout! Learn more

10-Day Weather Forecast

Advertisements
Track Severe Weather on mobile